Flughafen Wetterinformationen

LTBA 241920Z 09007KT 060V140 CAVOK 09/02 Q1021 NOSIG

VATSIM Feed

Card image cap

ATC Buchungen

Es wurde keine Position gebucht

Card image cap

Aktive Flugsicherung

Derzeit sind keine Fluglotsen Online

Blog

Read our latest news and get to know us better.